Time,TemperatureF,DewpointF,PressureIn,WindDirection,WindDirectionDegrees,WindSpeedMPH,WindSpeedGustMPH,Humidity,HourlyPrecipIn,Conditions,Clouds,dailyrainin,SoftwareType,DateUTC
2014-01-05 00:00:00,18.5,9.0,30.31,West,270,0.0,0.0,66,0.00,CLR,,0.00,WeatherDisplay:10.37,2014-01-05 05:00:00,
2014-01-05 00:01:00,18.5,9.0,30.31,West,270,0.0,0.0,66,0.00,CLR,,0.00,WeatherDisplay:10.37,2014-01-05 05:01:00,
2014-01-05 00:06:00,18.3,8.9,30.30,West,270,0.0,0.0,66,0.00,CLR,,0.00,WeatherDisplay:10.37,2014-01-05 05:06:00,
2014-01-05 00:07:00,18.3,8.9,30.30,West,270,0.0,0.0,66,0.00,CLR,,0.00,WeatherDisplay:10.37,2014-01-05 05:07:00,
2014-01-05 00:12:00,18.3,9.2,30.30,West,270,0.0,0.0,67,0.00,CLR,,0.00,WeatherDisplay:10.37,2014-01-05 05:12:00,
2014-01-05 00:17:00,18.3,9.2,30.29,West,270,0.0,0.0,67,0.00,CLR,,0.00,WeatherDisplay:10.37,2014-01-05 05:17:00,
2014-01-05 00:22:00,18.3,9.2,30.29,West,270,0.0,0.0,67,0.00,CLR,,0.00,WeatherDisplay:10.37,2014-01-05 05:22:00,
2014-01-05 00:27:00,18.3,9.2,30.29,West,270,0.0,0.0,67,0.00,CLR,,0.00,WeatherDisplay:10.37,2014-01-05 05:27:00,
2014-01-05 00:32:00,18.1,9.3,30.28,West,270,0.0,0.0,68,0.00,CLR,,0.00,WeatherDisplay:10.37,2014-01-05 05:32:00,
2014-01-05 00:37:00,18.1,9.3,30.28,West,270,0.0,0.0,68,0.00,CLR,,0.00,WeatherDisplay:10.37,2014-01-05 05:37:00,
2014-01-05 00:42:00,18.1,9.3,30.28,West,270,0.0,0.0,68,0.00,CLR,,0.00,WeatherDisplay:10.37,2014-01-05 05:42:00,
2014-01-05 00:47:00,18.0,9.2,30.28,West,270,0.0,0.0,68,0.00,CLR,,0.00,WeatherDisplay:10.37,2014-01-05 05:47:00,
2014-01-05 00:52:00,17.8,9.0,30.28,West,270,0.0,0.0,68,0.00,CLR,,0.00,WeatherDisplay:10.37,2014-01-05 05:52:00,
2014-01-05 00:57:00,17.6,8.8,30.28,West,270,0.0,0.0,68,0.00,CLR,,0.00,WeatherDisplay:10.37,2014-01-05 05:57:00,
2014-01-05 01:02:00,17.4,9.0,30.27,West,270,0.0,0.0,69,0.00,CLR,,0.00,WeatherDisplay:10.37,2014-01-05 06:02:00,
2014-01-05 01:07:00,17.2,8.8,30.28,West,270,0.0,0.0,69,0.00,CLR,,0.00,WeatherDisplay:10.37,2014-01-05 06:07:00,
2014-01-05 01:12:00,17.2,8.8,30.28,West,270,0.0,0.0,69,0.00,CLR,,0.00,WeatherDisplay:10.37,2014-01-05 06:12:00,
2014-01-05 01:17:00,17.2,8.8,30.27,West,270,0.0,0.0,69,0.00,CLR,,0.00,WeatherDisplay:10.37,2014-01-05 06:17:00,
2014-01-05 01:22:00,17.2,9.1,30.27,West,270,0.0,0.0,70,0.00,CLR,,0.00,WeatherDisplay:10.37,2014-01-05 06:22:00,
2014-01-05 01:27:00,17.2,9.1,30.27,West,270,0.0,0.0,70,0.00,CLR,,0.00,WeatherDisplay:10.37,2014-01-05 06:27:00,
2014-01-05 01:32:00,17.2,9.1,30.27,West,270,0.0,0.0,70,0.00,CLR,,0.00,WeatherDisplay:10.37,2014-01-05 06:32:00,
2014-01-05 01:37:00,17.2,9.1,30.28,West,270,0.0,0.0,70,0.00,CLR,,0.00,WeatherDisplay:10.37,2014-01-05 06:37:00,
2014-01-05 01:42:00,17.1,9.3,30.28,West,270,0.0,0.0,71,0.00,CLR,,0.00,WeatherDisplay:10.37,2014-01-05 06:42:00,
2014-01-05 01:47:00,16.9,9.1,30.29,West,270,0.0,0.0,71,0.00,CLR,,0.00,WeatherDisplay:10.37,2014-01-05 06:47:00,
2014-01-05 01:52:00,16.9,9.1,30.29,West,270,0.0,0.0,71,0.00,CLR,,0.00,WeatherDisplay:10.37,2014-01-05 06:52:00,
2014-01-05 01:57:00,16.9,9.1,30.29,West,270,0.0,0.0,71,0.00,CLR,,0.00,WeatherDisplay:10.37,2014-01-05 06:57:00,
2014-01-05 02:02:00,16.9,9.1,30.29,West,270,0.0,0.0,71,0.00,CLR,,0.00,WeatherDisplay:10.37,2014-01-05 07:02:00,
2014-01-05 02:07:00,16.9,9.1,30.29,West,270,0.0,0.0,71,0.00,CLR,,0.00,WeatherDisplay:10.37,2014-01-05 07:07:00,
2014-01-05 02:12:00,16.7,8.9,30.28,West,270,0.0,0.0,71,0.00,CLR,,0.00,WeatherDisplay:10.37,2014-01-05 07:12:00,
2014-01-05 02:17:00,16.7,9.2,30.28,West,270,0.0,0.0,72,0.00,CLR,,0.00,WeatherDisplay:10.37,2014-01-05 07:17:00,
2014-01-05 02:22:00,16.5,9.1,30.29,West,270,0.0,0.0,72,0.00,CLR,,0.00,WeatherDisplay:10.37,2014-01-05 07:22:00,
2014-01-05 02:27:00,16.5,9.1,30.29,West,270,0.0,0.0,72,0.00,CLR,,0.00,WeatherDisplay:10.37,2014-01-05 07:27:00,
2014-01-05 02:32:00,16.3,8.9,30.29,West,270,0.0,0.0,72,0.00,CLR,,0.00,WeatherDisplay:10.37,2014-01-05 07:32:00,
2014-01-05 02:37:00,16.3,9.2,30.29,West,270,0.0,0.0,73,0.00,CLR,,0.00,WeatherDisplay:10.37,2014-01-05 07:37:00,
2014-01-05 02:42:00,16.3,9.2,30.30,West,270,0.0,0.0,73,0.00,CLR,,0.00,WeatherDisplay:10.37,2014-01-05 07:42:00,
2014-01-05 02:47:00,16.3,9.2,30.30,West,270,0.0,0.0,73,0.00,CLR,,0.00,WeatherDisplay:10.37,2014-01-05 07:47:00,
2014-01-05 02:52:00,16.3,9.2,30.30,West,270,0.0,0.0,73,0.00,CLR,,0.00,WeatherDisplay:10.37,2014-01-05 07:52:00,
2014-01-05 11:32:00,16.3,9.2,30.30,North,0,0.0,0.0,73,0.00,CLR,,0.00,WeatherDisplay:10.37,2014-01-05 16:32:00,
2014-01-05 11:37:00,28.8,22.5,30.26,North,0,0.0,0.0,77,0.00,CLR,,0.00,WeatherDisplay:10.37,2014-01-05 16:37:00,
2014-01-05 11:42:00,28.8,22.8,30.26,North,0,0.0,0.0,78,0.00,CLR,,0.00,WeatherDisplay:10.37,2014-01-05 16:42:00,
2014-01-05 11:47:00,28.9,22.9,30.26,North,0,0.0,0.0,78,0.00,CLR,,0.00,WeatherDisplay:10.37,2014-01-05 16:47:00,
2014-01-05 11:52:00,29.3,23.3,30.25,North,0,0.0,0.0,78,0.00,CLR,,0.00,WeatherDisplay:10.37,2014-01-05 16:52:00,
2014-01-05 11:57:00,29.3,23.3,30.25,North,0,0.0,0.0,78,0.00,CLR,,0.00,WeatherDisplay:10.37,2014-01-05 16:57:00,
2014-01-05 12:02:00,29.8,24.1,30.24,NW,315,0.0,0.0,79,0.00,CLR,,0.00,WeatherDisplay:10.37,2014-01-05 17:02:00,
2014-01-05 12:07:00,29.8,23.8,30.24,NW,315,0.0,0.0,78,0.00,CLR,,0.00,WeatherDisplay:10.37,2014-01-05 17:07:00,
2014-01-05 12:12:00,29.8,23.8,30.23,NW,315,0.0,0.0,78,0.00,CLR,,0.00,WeatherDisplay:10.37,2014-01-05 17:12:00,
2014-01-05 12:17:00,29.7,23.9,30.23,NW,315,0.0,0.0,79,0.00,CLR,,0.00,WeatherDisplay:10.37,2014-01-05 17:17:00,
2014-01-05 12:22:00,29.5,23.8,30.23,NNW,338,2.3,2.3,79,0.00,CLR,,0.00,WeatherDisplay:10.37,2014-01-05 17:22:00,
2014-01-05 12:27:00,29.1,23.4,30.23,NNW,338,0.0,0.0,79,0.00,CLR,,0.00,WeatherDisplay:10.37,2014-01-05 17:27:00,
2014-01-05 12:32:00,29.1,23.4,30.22,NNW,338,0.0,0.0,79,0.00,CLR,,0.00,WeatherDisplay:10.37,2014-01-05 17:32:00,
2014-01-05 12:37:00,29.1,23.4,30.21,North,0,0.0,0.0,79,0.00,CLR,,0.00,WeatherDisplay:10.37,2014-01-05 17:37:00,
2014-01-05 12:42:00,29.1,23.4,30.21,North,0,0.0,0.0,79,0.00,CLR,,0.00,WeatherDisplay:10.37,2014-01-05 17:42:00,
2014-01-05 12:47:00,29.3,23.6,30.21,NNW,338,0.0,0.0,79,0.00,CLR,,0.00,WeatherDisplay:10.37,2014-01-05 17:47:00,
2014-01-05 12:52:00,29.3,23.9,30.21,NNW,338,0.0,0.0,80,0.00,CLR,,0.00,WeatherDisplay:10.37,2014-01-05 17:52:00,
2014-01-05 12:57:00,29.3,23.9,30.21,NNW,338,0.0,0.0,80,0.00,CLR,,0.00,WeatherDisplay:10.37,2014-01-05 17:57:00,
2014-01-05 13:02:00,29.5,24.1,30.21,NNE,22,0.0,0.0,80,0.00,CLR,,0.00,WeatherDisplay:10.37,2014-01-05 18:02:00,
2014-01-05 13:07:00,29.5,24.1,30.20,NNE,22,0.0,0.0,80,0.00,CLR,,0.00,WeatherDisplay:10.37,2014-01-05 18:07:00,
2014-01-05 13:12:00,29.3,23.9,30.19,NE,45,0.0,0.0,80,0.00,CLR,,0.00,WeatherDisplay:10.37,2014-01-05 18:12:00,
2014-01-05 13:17:00,29.1,23.7,30.19,NE,45,0.0,0.0,80,0.00,CLR,,0.00,WeatherDisplay:10.37,2014-01-05 18:17:00,
2014-01-05 13:22:00,29.1,23.7,30.19,NE,45,0.0,0.0,80,0.00,CLR,,0.00,WeatherDisplay:10.37,2014-01-05 18:22:00,
2014-01-05 13:27:00,29.3,23.9,30.19,NE,45,0.0,0.0,80,0.00,CLR,,0.00,WeatherDisplay:10.37,2014-01-05 18:27:00,
2014-01-05 13:32:00,29.1,23.7,30.19,NNE,22,0.0,0.0,80,0.00,CLR,,0.00,WeatherDisplay:10.37,2014-01-05 18:32:00,
2014-01-05 13:37:00,29.1,24.0,30.19,NE,45,0.0,0.0,81,0.00,CLR,,0.00,WeatherDisplay:10.37,2014-01-05 18:37:00,
2014-01-05 13:42:00,29.1,24.0,30.18,NE,45,0.0,0.0,81,0.00,CLR,,0.00,WeatherDisplay:10.37,2014-01-05 18:42:00,
2014-01-05 13:47:00,29.1,24.0,30.18,NE,45,0.0,0.0,81,0.00,CLR,,0.00,WeatherDisplay:10.37,2014-01-05 18:47:00,
2014-01-05 13:52:00,29.1,24.0,30.19,NE,45,0.0,0.0,81,0.00,CLR,,0.00,WeatherDisplay:10.37,2014-01-05 18:52:00,
2014-01-05 13:57:00,29.1,24.0,30.19,NE,45,0.0,0.0,81,0.00,CLR,,0.00,WeatherDisplay:10.37,2014-01-05 18:57:00,
2014-01-05 14:02:00,28.9,23.8,30.19,NNE,22,0.0,0.0,81,0.00,CLR,,0.00,WeatherDisplay:10.37,2014-01-05 19:02:00,
2014-01-05 14:07:00,28.9,23.8,30.19,NNE,22,0.0,0.0,81,0.00,CLR,,0.00,WeatherDisplay:10.37,2014-01-05 19:07:00,
2014-01-05 14:12:00,28.9,23.8,30.19,North,0,0.0,0.0,81,0.00,CLR,,0.00,WeatherDisplay:10.37,2014-01-05 19:12:00,
2014-01-05 14:17:00,28.8,24.0,30.19,NNE,22,0.0,0.0,82,0.00,CLR,,0.00,WeatherDisplay:10.37,2014-01-05 19:17:00,
2014-01-05 14:22:00,28.9,24.1,30.18,NNE,22,0.0,0.0,82,0.00,CLR,,0.00,WeatherDisplay:10.37,2014-01-05 19:22:00,
2014-01-05 14:27:00,28.9,24.1,30.18,WNW,292,0.0,0.0,82,0.00,CLR,,0.00,WeatherDisplay:10.37,2014-01-05 19:27:00,
2014-01-05 14:32:00,28.9,24.1,30.18,WNW,292,0.0,0.0,82,0.00,CLR,,0.00,WeatherDisplay:10.37,2014-01-05 19:32:00,
2014-01-05 14:37:00,29.1,24.3,30.18,NNE,22,0.0,0.0,82,0.00,CLR,,0.00,WeatherDisplay:10.37,2014-01-05 19:37:00,
2014-01-05 14:42:00,29.1,24.3,30.17,NNE,22,0.0,0.0,82,0.00,CLR,,0.00,WeatherDisplay:10.37,2014-01-05 19:42:00,
2014-01-05 14:47:00,29.3,24.8,30.17,North,0,0.0,0.0,83,0.00,CLR,,0.00,WeatherDisplay:10.37,2014-01-05 19:47:00,
2014-01-05 14:52:00,29.5,25.0,30.17,North,0,0.0,0.0,83,0.00,CLR,,0.00,WeatherDisplay:10.37,2014-01-05 19:52:00,
2014-01-05 14:57:00,29.7,25.1,30.17,NNW,338,0.0,0.0,83,0.00,CLR,,0.00,WeatherDisplay:10.37,2014-01-05 19:57:00,
2014-01-05 15:02:00,29.8,25.3,30.17,NNW,338,0.0,0.0,83,0.00,CLR,,0.00,WeatherDisplay:10.37,2014-01-05 20:02:00,
2014-01-05 15:07:00,30.0,25.5,30.17,NNW,338,0.0,0.0,83,0.00,CLR,,0.00,WeatherDisplay:10.37,2014-01-05 20:07:00,
2014-01-05 15:12:00,30.0,25.5,30.17,NNW,338,0.0,0.0,83,0.00,CLR,,0.00,WeatherDisplay:10.37,2014-01-05 20:12:00,
2014-01-05 15:17:00,30.0,25.5,30.17,NNW,338,0.0,0.0,83,0.00,CLR,,0.00,WeatherDisplay:10.37,2014-01-05 20:17:00,
2014-01-05 15:22:00,30.2,25.7,30.17,NNW,338,0.0,0.0,83,0.00,CLR,,0.00,WeatherDisplay:10.37,2014-01-05 20:22:00,
2014-01-05 15:27:00,30.2,25.7,30.17,NNW,338,0.0,0.0,83,0.00,CLR,,0.00,WeatherDisplay:10.37,2014-01-05 20:27:00,
2014-01-05 15:32:00,30.2,25.7,30.17,NNW,338,0.0,0.0,83,0.00,CLR,,0.00,WeatherDisplay:10.37,2014-01-05 20:32:00,
2014-01-05 15:37:00,30.4,25.8,30.16,NNW,338,0.0,0.0,83,0.00,CLR,,0.00,WeatherDisplay:10.37,2014-01-05 20:37:00,
2014-01-05 15:42:00,30.4,25.8,30.15,NNW,338,0.0,0.0,83,0.00,CLR,,0.00,WeatherDisplay:10.37,2014-01-05 20:42:00,
2014-01-05 15:47:00,30.4,25.8,30.15,NW,315,0.0,0.0,83,0.00,CLR,,0.00,WeatherDisplay:10.37,2014-01-05 20:47:00,
2014-01-05 15:52:00,30.7,26.2,30.15,NW,315,0.0,0.0,83,0.00,CLR,,0.00,WeatherDisplay:10.37,2014-01-05 20:52:00,
2014-01-05 15:57:00,30.7,26.2,30.15,WNW,292,0.0,0.0,83,0.00,CLR,,0.00,WeatherDisplay:10.37,2014-01-05 20:57:00,
2014-01-05 16:02:00,30.7,26.5,30.15,WNW,292,0.0,0.0,84,0.00,CLR,,0.00,WeatherDisplay:10.37,2014-01-05 21:02:00,
2014-01-05 16:07:00,30.9,26.7,30.14,WNW,292,0.0,0.0,84,0.00,CLR,,0.00,WeatherDisplay:10.37,2014-01-05 21:07:00,
2014-01-05 16:12:00,30.9,26.7,30.13,NNW,338,0.0,0.0,84,0.00,CLR,,0.00,WeatherDisplay:10.37,2014-01-05 21:12:00,
2014-01-05 16:17:00,30.9,26.7,30.13,NNW,338,0.0,0.0,84,0.00,CLR,,0.00,WeatherDisplay:10.37,2014-01-05 21:17:00,
2014-01-05 16:22:00,30.9,26.7,30.13,NNW,338,0.0,0.0,84,0.00,CLR,,0.00,WeatherDisplay:10.37,2014-01-05 21:22:00,
2014-01-05 16:27:00,30.9,26.7,30.13,NW,315,0.0,0.0,84,0.00,CLR,,0.00,WeatherDisplay:10.37,2014-01-05 21:27:00,
2014-01-05 16:32:00,30.9,26.7,30.13,NW,315,0.0,0.0,84,0.00,CLR,,0.00,WeatherDisplay:10.37,2014-01-05 21:32:00,
2014-01-05 16:37:00,30.9,26.7,30.13,WNW,292,0.0,0.0,84,0.00,CLR,,0.00,WeatherDisplay:10.37,2014-01-05 21:37:00,
2014-01-05 16:42:00,30.9,26.7,30.13,WNW,292,0.0,0.0,84,0.00,CLR,,0.00,WeatherDisplay:10.37,2014-01-05 21:42:00,
2014-01-05 16:47:00,30.9,26.7,30.12,WNW,292,0.0,0.0,84,0.00,CLR,,0.00,WeatherDisplay:10.37,2014-01-05 21:47:00,
2014-01-05 16:52:00,30.9,26.7,30.12,NW,315,0.0,0.0,84,0.00,CLR,,0.00,WeatherDisplay:10.37,2014-01-05 21:52:00,
2014-01-05 16:57:00,30.9,26.7,30.12,WNW,292,0.0,0.0,84,0.00,CLR,,0.00,WeatherDisplay:10.37,2014-01-05 21:57:00,
2014-01-05 17:02:00,30.9,26.7,30.12,WNW,292,0.0,0.0,84,0.00,CLR,,0.00,WeatherDisplay:10.37,2014-01-05 22:02:00,
2014-01-05 17:07:00,30.9,26.7,30.11,WNW,292,0.0,0.0,84,0.00,CLR,,0.00,WeatherDisplay:10.37,2014-01-05 22:07:00,
2014-01-05 17:12:00,31.1,26.8,30.11,WNW,292,0.0,0.0,84,0.00,CLR,,0.00,WeatherDisplay:10.37,2014-01-05 22:12:00,
2014-01-05 17:17:00,31.3,27.0,30.11,NW,315,0.0,0.0,84,0.00,CLR,,0.00,WeatherDisplay:10.37,2014-01-05 22:17:00,
2014-01-05 17:22:00,31.3,27.0,30.10,NNW,338,0.0,0.0,84,0.00,CLR,,0.00,WeatherDisplay:10.37,2014-01-05 22:22:00,
2014-01-05 17:27:00,31.3,27.0,30.10,NNE,22,0.0,0.0,84,0.00,CLR,,0.00,WeatherDisplay:10.37,2014-01-05 22:27:00,
2014-01-05 17:32:00,31.3,27.3,30.10,NNW,338,0.0,0.0,85,0.00,CLR,,0.00,WeatherDisplay:10.37,2014-01-05 22:32:00,
2014-01-05 17:37:00,31.3,27.3,30.10,NNW,338,0.0,0.0,85,0.00,CLR,,0.00,WeatherDisplay:10.37,2014-01-05 22:37:00,
2014-01-05 17:42:00,31.3,27.3,30.10,NNW,338,0.0,0.0,85,0.00,CLR,,0.00,WeatherDisplay:10.37,2014-01-05 22:42:00,
2014-01-05 17:47:00,31.3,27.3,30.10,NW,315,0.0,0.0,85,0.00,CLR,,0.00,WeatherDisplay:10.37,2014-01-05 22:47:00,
2014-01-05 17:52:00,31.3,27.3,30.10,NW,315,0.0,0.0,85,0.00,CLR,,0.00,WeatherDisplay:10.37,2014-01-05 22:52:00,
2014-01-05 17:57:00,31.3,27.3,30.10,NW,315,0.0,0.0,85,0.00,CLR,,0.00,WeatherDisplay:10.37,2014-01-05 22:57:00,
2014-01-05 18:02:00,31.3,27.3,30.09,NNE,22,0.0,0.0,85,0.00,CLR,,0.00,WeatherDisplay:10.37,2014-01-05 23:02:00,
2014-01-05 18:07:00,31.3,27.3,30.09,North,0,0.0,0.0,85,0.00,CLR,,0.00,WeatherDisplay:10.37,2014-01-05 23:07:00,
2014-01-05 18:12:00,31.3,27.3,30.08,NW,315,0.0,0.0,85,0.00,CLR,,0.00,WeatherDisplay:10.37,2014-01-05 23:12:00,
2014-01-05 18:17:00,31.3,27.3,30.08,North,0,0.0,0.0,85,0.00,CLR,,0.00,WeatherDisplay:10.37,2014-01-05 23:17:00,
2014-01-05 18:22:00,31.3,27.3,30.08,North,0,0.0,0.0,85,0.00,CLR,,0.00,WeatherDisplay:10.37,2014-01-05 23:22:00,
2014-01-05 18:27:00,31.3,27.3,30.08,North,0,0.0,0.0,85,0.00,CLR,,0.00,WeatherDisplay:10.37,2014-01-05 23:27:00,
2014-01-05 18:32:00,31.5,27.5,30.07,North,0,0.0,0.0,85,0.00,CLR,,0.00,WeatherDisplay:10.37,2014-01-05 23:32:00,
2014-01-05 18:37:00,31.5,27.5,30.07,North,0,0.0,0.0,85,0.00,CLR,,0.00,WeatherDisplay:10.37,2014-01-05 23:37:00,
2014-01-05 18:42:00,31.5,27.5,30.07,NW,315,0.0,0.0,85,0.00,CLR,,0.00,WeatherDisplay:10.37,2014-01-05 23:42:00,
2014-01-05 18:47:00,31.6,27.6,30.06,NW,315,0.0,0.0,85,0.00,CLR,,0.00,WeatherDisplay:10.37,2014-01-05 23:47:00,
2014-01-05 18:52:00,31.6,27.6,30.06,NNW,338,0.0,0.0,85,0.00,CLR,,0.00,WeatherDisplay:10.37,2014-01-05 23:52:00,
2014-01-05 18:57:00,31.6,27.6,30.06,NNW,338,0.0,0.0,85,0.00,CLR,,0.00,WeatherDisplay:10.37,2014-01-05 23:57:00,
2014-01-05 19:02:00,31.6,27.6,30.05,NNW,338,0.0,0.0,85,0.00,CLR,,0.00,WeatherDisplay:10.37,2014-01-06 00:02:00,
2014-01-05 19:07:00,31.6,27.6,30.05,NW,315,0.0,0.0,85,0.00,CLR,,0.00,WeatherDisplay:10.37,2014-01-06 00:07:00,
2014-01-05 19:12:00,31.6,27.6,30.04,NW,315,0.0,0.0,85,0.00,CLR,,0.00,WeatherDisplay:10.37,2014-01-06 00:12:00,
2014-01-05 19:17:00,31.6,27.9,30.04,NNE,22,0.0,0.0,86,0.00,CLR,,0.00,WeatherDisplay:10.37,2014-01-06 00:17:00,
2014-01-05 19:22:00,31.8,28.1,30.04,NW,315,0.0,0.0,86,0.00,CLR,,0.00,WeatherDisplay:10.37,2014-01-06 00:22:00,
2014-01-05 19:27:00,31.8,28.1,30.03,NW,315,0.0,0.0,86,0.00,CLR,,0.00,WeatherDisplay:10.37,2014-01-06 00:27:00,
2014-01-05 19:32:00,31.8,28.1,30.03,NNW,338,0.0,0.0,86,0.00,CLR,,0.00,WeatherDisplay:10.37,2014-01-06 00:32:00,
2014-01-05 19:37:00,31.8,28.1,30.03,North,0,0.0,0.0,86,0.00,CLR,,0.00,WeatherDisplay:10.37,2014-01-06 00:37:00,
2014-01-05 19:42:00,31.8,28.1,30.02,NW,315,0.0,0.0,86,0.00,CLR,,0.00,WeatherDisplay:10.37,2014-01-06 00:42:00,
2014-01-05 19:47:00,31.8,28.1,30.01,NNW,338,0.0,0.0,86,0.00,CLR,,0.00,WeatherDisplay:10.37,2014-01-06 00:47:00,
2014-01-05 19:52:00,31.8,28.1,30.01,NNW,338,0.0,0.0,86,0.00,CLR,,0.00,WeatherDisplay:10.37,2014-01-06 00:52:00,
2014-01-05 19:57:00,32.0,28.3,30.01,NNW,338,0.0,0.0,86,0.00,CLR,,0.00,WeatherDisplay:10.37,2014-01-06 00:57:00,
2014-01-05 20:02:00,32.2,28.5,30.00,NNW,338,0.0,0.0,86,0.00,CLR,,0.00,WeatherDisplay:10.37,2014-01-06 01:02:00,
2014-01-05 20:07:00,32.0,28.3,30.00,NNW,338,0.0,0.0,86,0.00,CLR,,0.00,WeatherDisplay:10.37,2014-01-06 01:07:00,
2014-01-05 20:12:00,32.0,28.3,30.00,NNW,338,0.0,0.0,86,0.00,CLR,,0.00,WeatherDisplay:10.37,2014-01-06 01:12:00,
2014-01-05 20:17:00,32.0,28.3,30.00,NNW,338,0.0,0.0,86,0.00,CLR,,0.00,WeatherDisplay:10.37,2014-01-06 01:17:00,
2014-01-05 20:22:00,32.0,28.3,29.99,NNW,338,0.0,0.0,86,0.00,CLR,,0.00,WeatherDisplay:10.37,2014-01-06 01:22:00,
2014-01-05 20:27:00,32.0,28.3,29.99,NNE,22,0.0,0.0,86,0.00,CLR,,0.00,WeatherDisplay:10.37,2014-01-06 01:27:00,
2014-01-05 20:32:00,32.2,28.5,29.99,NNE,22,0.0,0.0,86,0.00,CLR,,0.00,WeatherDisplay:10.37,2014-01-06 01:32:00,
2014-01-05 20:37:00,32.2,28.5,29.99,North,0,0.0,0.0,86,0.00,CLR,,0.00,WeatherDisplay:10.37,2014-01-06 01:37:00,
2014-01-05 20:42:00,32.2,28.5,29.98,North,0,0.0,0.0,86,0.00,CLR,,0.00,WeatherDisplay:10.37,2014-01-06 01:42:00,
2014-01-05 20:47:00,32.2,28.5,29.98,NW,315,0.0,0.0,86,0.00,CLR,,0.00,WeatherDisplay:10.37,2014-01-06 01:47:00,
2014-01-05 20:52:00,32.2,28.5,29.97,NW,315,0.0,0.0,86,0.00,CLR,,0.00,WeatherDisplay:10.37,2014-01-06 01:52:00,
2014-01-05 20:57:00,32.2,28.5,29.97,NW,315,0.0,0.0,86,0.00,CLR,,0.00,WeatherDisplay:10.37,2014-01-06 01:57:00,
2014-01-05 21:02:00,32.2,28.5,29.96,NW,315,0.0,0.0,86,0.00,CLR,,0.00,WeatherDisplay:10.37,2014-01-06 02:02:00,
2014-01-05 21:07:00,32.2,28.5,29.95,NW,315,0.0,0.0,86,0.00,CLR,,0.00,WeatherDisplay:10.37,2014-01-06 02:07:00,
2014-01-05 21:12:00,32.2,28.5,29.96,NW,315,0.0,0.0,86,0.00,CLR,,0.00,WeatherDisplay:10.37,2014-01-06 02:12:00,
2014-01-05 21:17:00,32.2,28.5,29.95,NW,315,0.0,0.0,86,0.00,CLR,,0.00,WeatherDisplay:10.37,2014-01-06 02:17:00,
2014-01-05 21:22:00,32.2,28.5,29.94,North,0,0.0,0.0,86,0.00,CLR,,0.00,WeatherDisplay:10.37,2014-01-06 02:22:00,
2014-01-05 21:27:00,32.2,28.5,29.93,North,0,0.0,0.0,86,0.00,CLR,,0.00,WeatherDisplay:10.37,2014-01-06 02:27:00,
2014-01-05 21:32:00,32.2,28.5,29.93,North,0,0.0,0.0,86,0.00,CLR,,0.00,WeatherDisplay:10.37,2014-01-06 02:32:00,